createdAt,value
2022-10-20T00:00:55.635Z,0.00
2022-10-20T00:01:55.756Z,0.00
2022-10-20T00:02:55.814Z,0.00
2022-10-20T00:03:55.734Z,0.00
2022-10-20T00:04:55.764Z,0.00
2022-10-20T00:05:55.796Z,0.00
2022-10-20T00:06:55.822Z,0.00
2022-10-20T00:07:55.855Z,0.00
2022-10-20T00:08:56.055Z,0.00
2022-10-20T00:09:55.917Z,0.00
2022-10-20T00:10:56.057Z,0.00
2022-10-20T00:11:55.981Z,0.00
2022-10-20T00:12:56.009Z,0.00
2022-10-20T00:13:56.045Z,0.00
2022-10-20T00:14:56.071Z,0.00
2022-10-20T00:15:56.104Z,0.00
2022-10-20T00:16:56.135Z,0.00
2022-10-20T00:17:56.168Z,0.00
2022-10-20T00:18:56.197Z,0.00
2022-10-20T00:19:56.233Z,0.00
2022-10-20T00:20:56.265Z,0.00
2022-10-20T00:21:56.336Z,0.00
2022-10-20T00:22:56.323Z,0.00
2022-10-20T00:23:56.354Z,0.00
2022-10-20T00:24:56.385Z,0.00
2022-10-20T00:25:56.421Z,0.00
2022-10-20T00:26:56.448Z,0.00
2022-10-20T00:27:56.483Z,0.00
2022-10-20T00:28:56.510Z,0.00
2022-10-20T00:29:56.545Z,0.00
2022-10-20T00:30:56.572Z,0.00
2022-10-20T00:31:56.610Z,0.00
2022-10-20T00:32:56.641Z,0.00
2022-10-20T00:33:56.671Z,0.00
2022-10-20T00:34:56.698Z,0.00
2022-10-20T00:35:56.739Z,0.00
2022-10-20T00:36:56.761Z,0.00
2022-10-20T00:37:56.792Z,0.00
2022-10-20T00:38:56.825Z,0.00
2022-10-20T00:39:56.856Z,0.00
2022-10-20T00:40:56.885Z,0.00
2022-10-20T00:41:56.921Z,0.00
2022-10-20T00:42:56.950Z,0.00
2022-10-20T00:43:56.984Z,0.00
2022-10-20T00:44:57.010Z,0.00
2022-10-20T00:45:57.047Z,0.00
2022-10-20T00:46:57.073Z,0.00
2022-10-20T00:47:57.106Z,0.00
2022-10-20T00:48:57.135Z,0.00
2022-10-20T00:49:57.170Z,0.00
2022-10-20T00:50:57.197Z,0.00
2022-10-20T00:51:57.234Z,0.00
2022-10-20T00:52:57.263Z,0.00
2022-10-20T00:53:57.293Z,0.00
2022-10-20T00:54:57.322Z,0.00
2022-10-20T00:55:57.363Z,0.00
2022-10-20T00:56:57.452Z,0.00
2022-10-20T00:57:57.419Z,0.00
2022-10-20T00:58:57.455Z,0.00
2022-10-20T00:59:57.479Z,0.00
2022-10-20T01:00:57.513Z,0.00
2022-10-20T01:01:57.604Z,0.00
2022-10-20T01:02:57.577Z,0.00
2022-10-20T01:03:57.606Z,0.00
2022-10-20T01:04:57.638Z,0.00
2022-10-20T01:05:57.677Z,0.00
2022-10-20T01:06:57.705Z,0.00
2022-10-20T01:07:57.808Z,0.00
2022-10-20T01:08:57.799Z,0.00
2022-10-20T01:09:57.793Z,0.00
2022-10-20T01:10:57.826Z,0.00
2022-10-20T01:11:57.856Z,0.00
2022-10-20T01:12:57.888Z,0.00
2022-10-20T01:13:57.917Z,0.00
2022-10-20T01:14:57.949Z,0.00
2022-10-20T01:15:57.984Z,0.00
2022-10-20T01:16:58.017Z,0.00
2022-10-20T01:17:58.044Z,0.00
2022-10-20T01:18:58.077Z,0.00
2022-10-20T01:19:58.108Z,0.00
2022-10-20T01:20:58.135Z,0.00
2022-10-20T01:21:58.168Z,0.00
2022-10-20T01:22:58.198Z,0.00
2022-10-20T01:23:58.234Z,0.00
2022-10-20T01:24:58.262Z,0.00
2022-10-20T01:25:58.294Z,0.00
2022-10-20T01:26:58.324Z,0.00
2022-10-20T01:27:58.364Z,0.00
2022-10-20T01:28:58.385Z,0.00
2022-10-20T01:29:58.423Z,0.00
2022-10-20T01:30:58.450Z,0.00
2022-10-20T01:31:58.482Z,0.00
2022-10-20T01:32:58.511Z,0.00
2022-10-20T01:33:58.544Z,0.00
2022-10-20T01:34:58.573Z,0.00
2022-10-20T01:35:58.608Z,0.00
2022-10-20T01:36:58.637Z,0.00
2022-10-20T01:37:58.669Z,0.00
2022-10-20T01:38:58.698Z,0.00
2022-10-20T01:39:58.734Z,0.00
2022-10-20T01:40:58.762Z,0.00
2022-10-20T01:41:58.792Z,0.00
2022-10-20T01:42:58.824Z,0.00
2022-10-20T01:43:58.858Z,0.00
2022-10-20T01:44:58.885Z,0.00
2022-10-20T01:45:58.917Z,0.00
2022-10-20T01:46:58.949Z,0.00
2022-10-20T01:47:58.980Z,0.00
2022-10-20T01:48:59.012Z,0.00
2022-10-20T01:49:59.045Z,0.00
2022-10-20T01:50:59.077Z,0.00
2022-10-20T01:51:59.107Z,0.00
2022-10-20T01:52:59.136Z,0.00
2022-10-20T01:53:59.169Z,0.00
2022-10-20T01:54:59.197Z,0.00
2022-10-20T01:55:59.232Z,0.00
2022-10-20T01:56:59.264Z,0.00
2022-10-20T01:57:59.292Z,0.00
2022-10-20T01:58:59.327Z,0.00
2022-10-20T01:59:59.357Z,0.00
2022-10-20T02:00:59.391Z,0.00
2022-10-20T02:01:59.464Z,0.00
2022-10-20T02:02:59.448Z,0.00
2022-10-20T02:03:59.479Z,0.00
2022-10-20T02:04:59.509Z,0.00
2022-10-20T02:05:59.541Z,0.00
2022-10-20T02:06:59.571Z,0.00
2022-10-20T02:07:59.602Z,0.00
2022-10-20T02:08:59.661Z,0.00
2022-10-20T02:09:59.670Z,0.00
2022-10-20T02:10:59.695Z,0.00
2022-10-20T02:11:59.731Z,0.00
2022-10-20T02:12:59.758Z,0.00
2022-10-20T02:13:59.796Z,0.00
2022-10-20T02:14:59.821Z,0.00
2022-10-20T02:15:59.853Z,0.00
2022-10-20T02:16:59.884Z,0.00
2022-10-20T02:17:59.920Z,0.00
2022-10-20T02:19:59.980Z,0.00
2022-10-20T02:21:00.006Z,0.00
2022-10-20T02:22:00.038Z,0.00
2022-10-20T02:23:00.104Z,0.00
2022-10-20T02:24:00.100Z,0.00
2022-10-20T02:25:00.129Z,0.00
2022-10-20T02:26:00.163Z,0.00
2022-10-20T02:27:00.196Z,0.00
2022-10-20T02:29:00.255Z,0.00
2022-10-20T02:30:00.292Z,0.00
2022-10-20T02:31:00.320Z,0.00
2022-10-20T02:32:00.360Z,0.00
2022-10-20T02:33:00.378Z,0.00
2022-10-20T02:34:00.413Z,0.00
2022-10-20T02:35:05.011Z,0.00
2022-10-20T02:36:00.474Z,0.00
2022-10-20T02:37:00.504Z,0.00
2022-10-20T02:38:00.535Z,0.00
2022-10-20T02:39:00.563Z,0.00
2022-10-20T02:40:00.598Z,0.00
2022-10-20T02:41:00.630Z,0.00
2022-10-20T02:42:00.659Z,0.00
2022-10-20T02:43:00.689Z,0.00
2022-10-20T02:44:00.729Z,0.00
2022-10-20T02:45:00.758Z,0.00
2022-10-20T02:46:00.784Z,0.00
2022-10-20T02:47:00.816Z,0.00
2022-10-20T02:48:00.845Z,0.00
2022-10-20T02:49:00.916Z,0.00
2022-10-20T02:50:00.937Z,0.00
2022-10-20T02:51:00.946Z,0.00
2022-10-20T02:52:00.970Z,0.00
2022-10-20T02:53:00.999Z,0.00
2022-10-20T02:54:01.030Z,0.00
2022-10-20T02:55:01.063Z,0.00
2022-10-20T02:56:01.094Z,0.00
2022-10-20T02:57:01.124Z,0.00
2022-10-20T02:58:01.154Z,0.00
2022-10-20T02:59:01.184Z,0.00
2022-10-20T03:00:01.217Z,0.00
2022-10-20T03:01:01.246Z,0.00
2022-10-20T03:02:01.327Z,0.00
2022-10-20T03:03:01.307Z,0.00
2022-10-20T03:04:01.344Z,0.00
2022-10-20T03:05:01.370Z,0.00
2022-10-20T03:06:01.403Z,0.00
2022-10-20T03:07:01.431Z,0.00
2022-10-20T03:08:01.464Z,0.00
2022-10-20T03:09:01.572Z,0.00
2022-10-20T03:10:01.527Z,0.00
2022-10-20T03:11:01.558Z,0.00
2022-10-20T03:12:01.618Z,0.00
2022-10-20T03:13:01.618Z,0.00
2022-10-20T03:14:01.649Z,0.00
2022-10-20T03:15:01.684Z,0.00
2022-10-20T03:16:01.716Z,0.00
2022-10-20T03:17:01.742Z,0.00
2022-10-20T03:18:01.771Z,0.00
2022-10-20T03:19:04.679Z,0.00
2022-10-20T03:20:01.836Z,0.00
2022-10-20T03:21:01.866Z,0.00
2022-10-20T03:22:01.896Z,0.00
2022-10-20T03:23:01.937Z,0.00
2022-10-20T03:24:01.959Z,0.00
2022-10-20T03:25:01.986Z,0.00
2022-10-20T03:26:02.019Z,0.00
2022-10-20T03:27:02.049Z,0.00
2022-10-20T03:28:02.082Z,0.00
2022-10-20T03:29:02.118Z,0.00
2022-10-20T03:30:02.142Z,0.00
2022-10-20T03:31:02.174Z,0.00
2022-10-20T03:32:02.218Z,0.00
2022-10-20T03:33:02.235Z,0.00
2022-10-20T03:34:02.266Z,0.00
2022-10-20T03:35:02.297Z,0.00
2022-10-20T03:36:02.328Z,0.00
2022-10-20T03:37:02.356Z,0.00
2022-10-20T03:38:02.392Z,0.00
2022-10-20T03:39:02.419Z,0.00
2022-10-20T03:40:02.450Z,0.00
2022-10-20T03:42:02.512Z,0.00
2022-10-20T03:43:02.540Z,0.00
2022-10-20T03:44:02.601Z,0.00
2022-10-20T03:45:02.603Z,0.00
2022-10-20T03:46:02.637Z,0.00
2022-10-20T03:47:02.667Z,0.00
2022-10-20T03:48:02.719Z,0.00
2022-10-20T03:49:02.725Z,0.00
2022-10-20T03:50:02.757Z,0.00
2022-10-20T03:51:02.787Z,0.00
2022-10-20T03:52:02.819Z,0.00
2022-10-20T03:53:02.848Z,0.00
2022-10-20T03:54:02.880Z,0.00
2022-10-20T03:55:02.914Z,0.00
2022-10-20T03:56:02.943Z,0.00
2022-10-20T03:57:06.849Z,0.00
2022-10-20T03:58:03.005Z,0.00
2022-10-20T04:00:03.066Z,0.00
2022-10-20T04:01:03.092Z,0.00
2022-10-20T04:02:03.175Z,0.00
2022-10-20T04:03:03.157Z,0.00
2022-10-20T04:04:03.190Z,0.00
2022-10-20T04:06:16.990Z,0.00
2022-10-20T04:07:17.008Z,0.00
2022-10-20T04:09:10.216Z,0.00
2022-10-20T04:10:10.191Z,0.00
2022-10-20T04:12:05.942Z,0.00
2022-10-20T04:13:03.379Z,0.00
2022-10-20T04:14:56.567Z,0.00
2022-10-20T04:15:56.561Z,0.00
2022-10-20T04:17:49.750Z,0.00
2022-10-20T04:18:49.746Z,0.00
2022-10-20T04:20:44.517Z,0.00
2022-10-20T04:21:42.931Z,0.00
2022-10-20T04:23:35.941Z,0.00
2022-10-20T04:24:35.941Z,0.00
2022-10-20T04:26:28.954Z,0.00
2022-10-20T04:27:28.981Z,0.00
2022-10-20T04:29:22.179Z,0.00
2022-10-20T04:30:22.167Z,0.00
2022-10-20T04:32:15.321Z,0.00
2022-10-20T04:33:15.348Z,0.00
2022-10-20T04:34:15.376Z,0.00
2022-10-20T04:35:15.411Z,0.00
2022-10-20T04:36:15.446Z,0.00
2022-10-20T04:37:15.471Z,0.00
2022-10-20T04:38:15.503Z,0.00
2022-10-20T04:39:15.528Z,0.00
2022-10-20T04:40:15.588Z,0.00
2022-10-20T04:41:15.592Z,0.00
2022-10-20T04:42:15.623Z,0.00
2022-10-20T04:43:15.654Z,0.00
2022-10-20T04:44:15.687Z,0.00
2022-10-20T04:45:15.717Z,0.00
2022-10-20T04:46:15.745Z,0.00
2022-10-20T04:47:15.775Z,0.00
2022-10-20T04:48:15.804Z,0.00
2022-10-20T04:49:15.842Z,0.00
2022-10-20T04:50:15.866Z,0.00
2022-10-20T04:51:15.896Z,0.00
2022-10-20T04:52:15.932Z,0.00
2022-10-20T04:53:15.961Z,0.00
2022-10-20T04:54:15.992Z,0.00
2022-10-20T04:55:16.020Z,0.00
2022-10-20T04:56:16.053Z,0.00
2022-10-20T04:57:16.081Z,0.00
2022-10-20T04:58:16.110Z,0.00
2022-10-20T04:59:16.147Z,0.00
2022-10-20T05:00:16.171Z,0.00
2022-10-20T05:01:16.226Z,0.00
2022-10-20T05:02:16.235Z,0.00
2022-10-20T05:03:16.267Z,0.00
2022-10-20T05:04:16.293Z,0.00
2022-10-20T05:05:16.327Z,0.00
2022-10-20T05:06:16.355Z,0.00
2022-10-20T05:07:16.390Z,0.00
2022-10-20T05:08:16.418Z,0.00
2022-10-20T05:09:16.547Z,0.00
2022-10-20T05:10:16.477Z,0.00
2022-10-20T05:11:16.507Z,0.00
2022-10-20T05:12:16.571Z,0.00
2022-10-20T05:13:16.573Z,0.00
2022-10-20T05:14:16.600Z,0.00
2022-10-20T05:15:16.633Z,0.00
2022-10-20T05:16:16.668Z,0.00
2022-10-20T05:17:16.697Z,0.00
2022-10-20T05:18:16.723Z,4.00
2022-10-20T05:19:16.755Z,0.00
2022-10-20T05:20:16.783Z,0.00
2022-10-20T05:21:16.813Z,0.00
2022-10-20T05:22:16.843Z,4.00
2022-10-20T05:23:16.875Z,0.00
2022-10-20T05:24:20.084Z,4.00
2022-10-20T05:25:36.417Z,0.00
2022-10-20T05:26:16.966Z,4.00
2022-10-20T05:27:16.999Z,4.00
2022-10-20T05:28:17.029Z,4.00
2022-10-20T05:29:17.058Z,4.00
2022-10-20T05:30:17.087Z,4.00
2022-10-20T05:31:17.118Z,8.00
2022-10-20T05:32:17.146Z,8.00
2022-10-20T05:33:17.179Z,8.00
2022-10-20T05:34:17.208Z,12.00
2022-10-20T05:35:17.240Z,8.00
2022-10-20T05:36:19.468Z,8.00
2022-10-20T05:37:17.301Z,12.00
2022-10-20T05:38:17.330Z,16.00
2022-10-20T05:39:17.362Z,16.00
2022-10-20T05:40:17.393Z,16.00
2022-10-20T05:41:17.432Z,16.00
2022-10-20T05:42:17.458Z,20.00
2022-10-20T05:43:17.566Z,20.00
2022-10-20T05:44:17.517Z,24.00
2022-10-20T05:45:17.545Z,24.00
2022-10-20T05:46:17.574Z,28.00
2022-10-20T05:47:17.611Z,28.00
2022-10-20T05:48:17.635Z,32.00
2022-10-20T05:49:17.708Z,36.00
2022-10-20T05:50:17.695Z,40.00
2022-10-20T05:51:17.727Z,40.00
2022-10-20T05:52:17.756Z,44.00
2022-10-20T05:53:17.788Z,44.00
2022-10-20T05:54:17.817Z,48.00
2022-10-20T05:55:17.847Z,52.00
2022-10-20T05:56:17.879Z,52.00
2022-10-20T05:57:17.910Z,56.00
2022-10-20T05:58:19.701Z,56.00
2022-10-20T05:59:17.969Z,60.00
2022-10-20T06:00:18.002Z,60.00
2022-10-20T06:01:18.125Z,60.00
2022-10-20T06:02:18.062Z,64.00
2022-10-20T06:03:19.707Z,64.00
2022-10-20T06:04:18.121Z,68.00
2022-10-20T06:05:18.152Z,68.00
2022-10-20T06:06:18.181Z,72.00
2022-10-20T06:07:18.216Z,76.00
2022-10-20T06:08:18.242Z,76.00
2022-10-20T06:09:18.275Z,76.00
2022-10-20T06:10:18.304Z,80.00
2022-10-20T06:11:18.337Z,84.00
2022-10-20T06:12:18.377Z,84.00
2022-10-20T06:13:18.397Z,88.00
2022-10-20T06:14:18.426Z,88.00
2022-10-20T06:15:18.458Z,92.00
2022-10-20T06:16:18.486Z,96.00
2022-10-20T06:17:18.515Z,96.00
2022-10-20T06:18:18.545Z,104.00
2022-10-20T06:19:18.576Z,108.00
2022-10-20T06:20:18.607Z,108.00
2022-10-20T06:21:18.638Z,112.00
2022-10-20T06:22:18.670Z,116.00
2022-10-20T06:23:18.696Z,116.00
2022-10-20T06:24:18.731Z,120.00
2022-10-20T06:25:18.760Z,120.00
2022-10-20T06:26:18.795Z,120.00
2022-10-20T06:27:18.817Z,124.00
2022-10-20T06:28:18.852Z,132.00
2022-10-20T06:29:18.883Z,132.00
2022-10-20T06:30:18.910Z,136.00
2022-10-20T06:31:18.941Z,140.00
2022-10-20T06:32:18.981Z,144.00
2022-10-20T06:33:19.001Z,148.00
2022-10-20T06:34:19.034Z,152.00
2022-10-20T06:35:19.065Z,156.00
2022-10-20T06:36:19.092Z,156.00
2022-10-20T06:37:19.121Z,164.00
2022-10-20T06:38:19.154Z,172.00
2022-10-20T06:39:19.182Z,180.00
2022-10-20T06:40:19.218Z,180.00
2022-10-20T06:41:19.244Z,184.00
2022-10-20T06:42:19.285Z,188.00
2022-10-20T06:43:19.305Z,196.00
2022-10-20T06:44:19.337Z,196.00
2022-10-20T06:45:19.370Z,196.00
2022-10-20T06:46:19.397Z,204.00
2022-10-20T06:47:19.426Z,212.00
2022-10-20T06:48:19.458Z,216.00
2022-10-20T06:49:19.504Z,216.00
2022-10-20T06:50:19.519Z,220.00
2022-10-20T06:51:19.557Z,224.00
2022-10-20T06:52:19.580Z,228.00
2022-10-20T06:53:19.610Z,228.00
2022-10-20T06:54:19.643Z,232.00
2022-10-20T06:55:19.668Z,232.00
2022-10-20T06:56:19.702Z,232.00
2022-10-20T06:57:19.730Z,232.00
2022-10-20T06:58:19.765Z,232.00
2022-10-20T06:59:19.790Z,236.00
2022-10-20T07:00:19.921Z,236.00
2022-10-20T07:01:19.902Z,240.00
2022-10-20T07:02:19.884Z,236.00
2022-10-20T07:03:19.923Z,240.00
2022-10-20T07:04:19.945Z,240.00
2022-10-20T07:05:19.973Z,244.00
2022-10-20T07:06:20.008Z,248.00
2022-10-20T07:07:20.033Z,248.00
2022-10-20T07:08:20.065Z,252.00
2022-10-20T07:09:20.099Z,252.00
2022-10-20T07:10:20.130Z,252.00
2022-10-20T07:11:20.156Z,256.00
2022-10-20T07:12:20.188Z,256.00
2022-10-20T07:13:20.218Z,256.00
2022-10-20T07:14:20.251Z,256.00
2022-10-20T07:15:20.279Z,260.00
2022-10-20T07:16:20.323Z,264.00
2022-10-20T07:17:20.340Z,264.00
2022-10-20T07:18:20.372Z,260.00
2022-10-20T07:19:20.403Z,260.00
2022-10-20T07:20:20.434Z,260.00
2022-10-20T07:21:20.466Z,260.00
2022-10-20T07:22:20.497Z,264.00
2022-10-20T07:23:20.523Z,268.00
2022-10-20T07:24:20.558Z,264.00
2022-10-20T07:25:20.585Z,268.00
2022-10-20T07:26:20.620Z,268.00
2022-10-20T07:27:20.649Z,268.00
2022-10-20T07:28:20.681Z,268.00
2022-10-20T07:29:20.747Z,268.00
2022-10-20T07:30:20.739Z,268.00
2022-10-20T07:31:20.767Z,272.00
2022-10-20T07:32:20.802Z,276.00
2022-10-20T07:33:20.830Z,276.00
2022-10-20T07:34:25.611Z,280.00
2022-10-20T07:35:20.890Z,280.00
2022-10-20T07:36:20.923Z,284.00
2022-10-20T07:37:20.953Z,288.00
2022-10-20T07:38:20.984Z,292.00
2022-10-20T07:39:21.017Z,296.00
2022-10-20T07:40:21.083Z,300.00
2022-10-20T07:41:21.075Z,300.00
2022-10-20T07:42:21.106Z,300.00
2022-10-20T07:43:21.136Z,304.00
2022-10-20T07:44:21.170Z,308.00
2022-10-20T07:45:21.198Z,320.00
2022-10-20T07:46:21.229Z,324.00
2022-10-20T07:47:21.260Z,336.00
2022-10-20T07:48:21.295Z,340.00
2022-10-20T07:50:21.367Z,360.00
2022-10-20T07:51:21.400Z,368.00
2022-10-20T07:52:21.416Z,368.00
2022-10-20T07:53:21.446Z,372.00
2022-10-20T07:54:21.479Z,388.00
2022-10-20T07:55:37.716Z,400.00
2022-10-20T07:56:21.546Z,412.00
2022-10-20T07:57:21.569Z,420.00
2022-10-20T07:58:21.603Z,424.00
2022-10-20T07:59:21.628Z,416.00
2022-10-20T08:00:21.661Z,420.00
2022-10-20T08:01:21.731Z,436.00
2022-10-20T08:02:21.789Z,448.00
2022-10-20T08:03:21.756Z,460.00
2022-10-20T08:04:21.803Z,460.00
2022-10-20T08:05:21.816Z,468.00
2022-10-20T08:06:21.862Z,476.00
2022-10-20T08:07:21.886Z,484.00
2022-10-20T08:08:21.918Z,488.00
2022-10-20T08:09:21.939Z,500.00
2022-10-20T08:10:21.975Z,508.00
2022-10-20T08:11:22.003Z,512.00
2022-10-20T08:12:22.035Z,520.00
2022-10-20T08:13:22.070Z,524.00
2022-10-20T08:14:22.099Z,528.00
2022-10-20T08:15:22.128Z,540.00
2022-10-20T08:16:24.134Z,544.00
2022-10-20T08:17:22.207Z,544.00
2022-10-20T08:18:23.211Z,556.00
2022-10-20T08:19:38.640Z,572.00
2022-10-20T08:20:27.119Z,580.00
2022-10-20T08:21:22.315Z,588.00
2022-10-20T08:22:22.349Z,596.00
2022-10-20T08:23:22.376Z,604.00
2022-10-20T08:24:22.417Z,608.00
2022-10-20T08:25:22.441Z,612.00
2022-10-20T08:26:22.471Z,616.00
2022-10-20T08:27:22.500Z,620.00
2022-10-20T08:28:24.769Z,632.00
2022-10-20T08:29:22.568Z,632.00
2022-10-20T08:30:24.131Z,640.00
2022-10-20T08:31:22.642Z,648.00
2022-10-20T08:32:22.662Z,648.00
2022-10-20T08:33:22.692Z,648.00
2022-10-20T08:34:22.725Z,648.00
2022-10-20T08:35:22.764Z,652.00
2022-10-20T08:36:22.788Z,652.00
2022-10-20T08:37:22.823Z,664.00
2022-10-20T08:38:22.856Z,684.00
2022-10-20T08:39:22.886Z,712.00
2022-10-20T08:40:22.918Z,748.00
2022-10-20T08:41:22.951Z,800.00
2022-10-20T08:42:22.991Z,844.00
2022-10-20T08:43:23.017Z,888.00
2022-10-20T08:44:23.046Z,948.00
2022-10-20T08:45:23.078Z,1044.00
2022-10-20T08:46:23.107Z,1152.00
2022-10-20T08:47:23.630Z,1264.00
2022-10-20T08:48:23.173Z,1424.00
2022-10-20T08:49:23.240Z,1716.00
2022-10-20T08:50:23.239Z,2144.00
2022-10-20T08:51:23.272Z,2580.00
2022-10-20T08:52:23.298Z,2880.00
2022-10-20T08:53:23.330Z,2976.00
2022-10-20T08:54:23.367Z,3112.00
2022-10-20T08:55:23.402Z,3448.00
2022-10-20T08:56:23.429Z,3728.00
2022-10-20T08:57:23.460Z,3920.00
2022-10-20T08:58:23.511Z,4080.00
2022-10-20T08:59:23.527Z,4228.00
2022-10-20T09:00:23.564Z,4648.00
2022-10-20T09:01:23.651Z,4708.00
2022-10-20T09:02:23.629Z,4832.00
2022-10-20T09:03:23.660Z,4604.00
2022-10-20T09:04:23.692Z,5396.00
2022-10-20T09:05:23.726Z,5612.00
2022-10-20T09:06:23.765Z,5600.00
2022-10-20T09:07:23.793Z,5760.00
2022-10-20T09:08:23.836Z,5132.00
2022-10-20T09:09:23.861Z,5628.00
2022-10-20T09:10:23.895Z,5560.00
2022-10-20T09:11:23.928Z,5356.00
2022-10-20T09:12:26.425Z,5336.00
2022-10-20T09:13:23.999Z,5484.00
2022-10-20T09:14:24.034Z,5068.00
2022-10-20T09:15:24.066Z,4872.00
2022-10-20T09:16:34.991Z,4488.00
2022-10-20T09:17:24.137Z,3988.00
2022-10-20T09:18:24.181Z,3480.00
2022-10-20T09:19:24.205Z,2896.00
2022-10-20T09:20:24.243Z,2324.00
2022-10-20T09:21:24.279Z,1792.00
2022-10-20T09:22:24.313Z,1484.00
2022-10-20T09:23:41.419Z,1384.00
2022-10-20T09:24:24.389Z,1320.00
2022-10-20T09:25:24.416Z,1300.00
2022-10-20T09:26:30.870Z,1272.00
2022-10-20T09:27:24.485Z,1220.00
2022-10-20T09:28:24.525Z,1208.00
2022-10-20T09:29:24.563Z,1196.00
2022-10-20T09:30:24.592Z,1180.00
2022-10-20T09:31:24.627Z,1208.00
2022-10-20T09:33:24.697Z,1256.00
2022-10-20T09:34:24.734Z,1284.00
2022-10-20T09:35:24.768Z,1316.00
2022-10-20T09:36:24.805Z,1344.00
2022-10-20T09:37:24.837Z,1356.00
2022-10-20T09:38:24.877Z,1348.00
2022-10-20T09:39:24.908Z,1364.00
2022-10-20T09:40:24.944Z,1372.00
2022-10-20T09:41:24.976Z,1380.00
2022-10-20T09:42:25.013Z,1404.00
2022-10-20T09:43:25.059Z,1428.00
2022-10-20T09:44:25.083Z,1456.00
2022-10-20T09:45:25.121Z,1492.00
2022-10-20T09:46:25.153Z,1500.00
2022-10-20T09:47:25.188Z,1504.00
2022-10-20T09:48:25.223Z,1496.00
2022-10-20T09:49:25.259Z,1508.00
2022-10-20T09:50:25.290Z,1532.00
2022-10-20T09:51:25.328Z,1572.00
2022-10-20T09:52:25.360Z,1636.00
2022-10-20T09:53:25.395Z,1700.00
2022-10-20T09:54:25.439Z,1756.00
2022-10-20T09:55:25.466Z,1856.00
2022-10-20T09:56:25.502Z,1944.00
2022-10-20T09:57:25.535Z,2016.00
2022-10-20T09:58:25.574Z,2124.00
2022-10-20T09:59:25.605Z,2160.00
2022-10-20T10:00:36.926Z,2324.00
2022-10-20T10:01:25.705Z,2380.00
2022-10-20T10:02:25.719Z,2504.00
2022-10-20T10:03:25.743Z,2780.00
2022-10-20T10:04:25.781Z,3060.00
2022-10-20T10:05:33.007Z,3364.00
2022-10-20T10:07:29.898Z,4712.00
2022-10-20T10:08:29.983Z,5736.00
2022-10-20T10:10:33.958Z,21952.00
2022-10-20T10:11:33.978Z,26816.00
2022-10-20T10:13:38.060Z,29280.00
2022-10-20T10:14:38.062Z,29280.00
2022-10-20T10:16:31.046Z,31904.00
2022-10-20T10:17:31.076Z,31520.00
2022-10-20T10:19:35.173Z,31744.00
2022-10-20T10:20:35.166Z,31616.00
2022-10-20T10:22:39.330Z,26720.00
2022-10-20T10:23:39.264Z,30656.00
2022-10-20T10:25:43.358Z,30432.00
2022-10-20T10:26:43.427Z,28160.00
2022-10-20T10:28:47.448Z,29664.00
2022-10-20T10:29:47.479Z,30528.00
2022-10-20T10:31:51.568Z,31712.00
2022-10-20T10:32:51.577Z,29536.00
2022-10-20T10:34:55.880Z,21824.00
2022-10-20T10:35:55.696Z,24480.00
2022-10-20T10:37:59.781Z,25536.00
2022-10-20T10:38:59.791Z,25632.00
2022-10-20T10:41:03.856Z,24672.00
2022-10-20T10:42:03.892Z,24480.00
2022-10-20T10:44:07.959Z,22944.00
2022-10-20T10:45:07.997Z,16096.00
2022-10-20T10:47:12.092Z,8220.00
2022-10-20T10:48:12.097Z,8192.00
2022-10-20T10:50:16.173Z,8576.00
2022-10-20T10:51:16.207Z,8024.00
2022-10-20T10:53:20.283Z,7944.00
2022-10-20T10:54:20.329Z,8548.00
2022-10-20T10:56:13.326Z,8512.00
2022-10-20T10:57:13.338Z,7280.00
2022-10-20T10:59:17.407Z,7236.00
2022-10-20T11:00:17.442Z,52160.00
2022-10-20T11:02:21.511Z,7412.00
2022-10-20T11:03:21.544Z,7720.00
2022-10-20T11:05:25.646Z,9496.00
2022-10-20T11:06:25.650Z,10844.00
2022-10-20T11:08:29.756Z,19936.00
2022-10-20T11:09:29.757Z,27552.00
2022-10-20T11:11:33.852Z,30240.00
2022-10-20T11:12:33.861Z,31360.00
2022-10-20T11:14:37.959Z,34560.00
2022-10-20T11:15:37.967Z,35648.00
2022-10-20T11:17:42.061Z,35744.00
2022-10-20T11:18:42.074Z,35904.00
2022-10-20T11:20:46.154Z,37920.00
2022-10-20T11:21:46.185Z,38816.00
2022-10-20T11:23:50.261Z,39072.00
2022-10-20T11:24:50.300Z,38976.00
2022-10-20T11:26:43.294Z,38880.00
2022-10-20T11:27:43.345Z,37600.00
2022-10-20T11:29:47.408Z,34208.00
2022-10-20T11:30:47.449Z,34528.00
2022-10-20T11:32:51.922Z,38272.00
2022-10-20T11:33:51.766Z,39648.00
2022-10-20T11:35:55.646Z,40320.00
2022-10-20T11:36:55.690Z,39776.00
2022-10-20T11:38:59.800Z,37024.00
2022-10-20T11:40:03.192Z,38272.00
2022-10-20T11:42:03.907Z,39072.00
2022-10-20T11:43:07.580Z,39616.00
2022-10-20T11:45:08.019Z,38784.00
2022-10-20T11:46:08.065Z,35072.00
2022-10-20T11:48:12.174Z,35392.00
2022-10-20T11:49:12.190Z,34624.00
2022-10-20T11:51:16.303Z,32608.00
2022-10-20T11:52:16.321Z,27968.00
2022-10-20T11:54:20.405Z,30400.00
2022-10-20T11:55:20.446Z,29120.00
2022-10-20T11:57:24.537Z,33280.00
2022-10-20T11:58:24.576Z,29120.00
2022-10-20T12:00:28.693Z,23776.00
2022-10-20T12:01:28.710Z,26048.00
2022-10-20T12:03:32.816Z,28416.00
2022-10-20T12:04:32.832Z,28352.00
2022-10-20T12:06:25.863Z,24608.00
2022-10-20T12:07:25.879Z,21472.00
2022-10-20T12:10:30.002Z,18240.00
2022-10-20T12:12:34.274Z,9952.00
2022-10-20T12:13:34.124Z,11048.00
2022-10-20T12:15:38.210Z,10452.00
2022-10-20T12:16:38.263Z,11904.00
2022-10-20T12:18:42.328Z,9556.00
2022-10-20T12:19:42.382Z,9944.00
2022-10-20T12:21:46.463Z,11952.00
2022-10-20T12:22:46.502Z,17216.00
2022-10-20T12:24:50.576Z,23520.00
2022-10-20T12:25:50.619Z,24160.00
2022-10-20T12:27:54.725Z,23872.00
2022-10-20T12:28:54.737Z,17568.00
2022-10-20T12:30:58.814Z,12832.00
2022-10-20T12:31:58.852Z,10868.00
2022-10-20T12:34:02.933Z,6620.00
2022-10-20T12:35:03.001Z,8172.00
2022-10-20T12:37:07.050Z,14016.00
2022-10-20T12:38:07.087Z,20576.00
2022-10-20T12:40:11.172Z,29152.00
2022-10-20T12:41:11.208Z,28960.00
2022-10-20T12:43:15.322Z,29024.00
2022-10-20T12:44:15.351Z,30432.00
2022-10-20T12:46:08.425Z,32320.00
2022-10-20T12:47:08.369Z,31296.00
2022-10-20T12:49:12.447Z,30400.00
2022-10-20T12:50:12.485Z,28992.00
2022-10-20T12:52:16.594Z,28256.00
2022-10-20T12:53:16.606Z,27008.00
2022-10-20T12:55:20.755Z,26208.00
2022-10-20T12:56:20.724Z,26304.00
2022-10-20T12:58:24.806Z,26048.00
2022-10-20T12:59:24.850Z,24736.00
2022-10-20T13:01:28.931Z,21920.00
2022-10-20T13:02:28.967Z,17856.00
2022-10-20T13:04:33.047Z,17120.00
2022-10-20T13:05:33.087Z,21536.00
2022-10-20T13:07:37.392Z,15008.00
2022-10-20T13:08:37.275Z,18144.00
2022-10-20T13:10:41.286Z,22368.00
2022-10-20T13:11:41.328Z,21760.00
2022-10-20T13:13:45.416Z,19168.00
2022-10-20T13:14:45.447Z,16864.00
2022-10-20T13:16:38.445Z,10284.00
2022-10-20T13:17:38.863Z,9104.00
2022-10-20T13:19:42.591Z,14336.00
2022-10-20T13:20:42.603Z,13888.00
2022-10-20T13:22:46.854Z,11680.00
2022-10-20T13:23:46.726Z,9012.00
2022-10-20T13:25:50.810Z,7696.00
2022-10-20T13:26:50.847Z,7368.00
2022-10-20T13:28:54.937Z,4628.00
2022-10-20T13:29:54.962Z,5288.00
2022-10-20T13:32:03.707Z,7924.00
2022-10-20T13:33:25.213Z,9780.00
2022-10-20T13:35:03.243Z,7436.00
2022-10-20T13:36:03.212Z,9312.00
2022-10-20T13:38:07.284Z,9672.00
2022-10-20T13:39:07.322Z,12896.00
2022-10-20T13:41:11.423Z,16800.00
2022-10-20T13:42:11.439Z,15968.00
2022-10-20T13:44:16.600Z,10464.00
2022-10-20T13:45:15.551Z,10864.00
2022-10-20T13:47:19.678Z,12736.00
2022-10-20T13:48:19.674Z,11220.00
2022-10-20T13:50:23.743Z,11340.00
2022-10-20T13:51:23.779Z,12448.00
2022-10-20T13:53:27.883Z,7628.00
2022-10-20T13:54:27.891Z,6840.00
2022-10-20T13:56:20.894Z,8768.00
2022-10-20T13:57:20.919Z,8144.00
2022-10-20T13:59:25.020Z,11712.00
2022-10-20T14:00:25.028Z,6768.00
2022-10-20T14:02:29.100Z,7556.00
2022-10-20T14:03:29.136Z,8196.00
2022-10-20T14:05:33.206Z,4336.00
2022-10-20T14:06:33.242Z,3236.00
2022-10-20T14:08:37.393Z,4712.00
2022-10-20T14:09:39.541Z,5720.00
2022-10-20T14:11:41.431Z,7184.00
2022-10-20T14:12:41.469Z,6124.00
2022-10-20T14:14:45.586Z,7940.00
2022-10-20T14:15:45.573Z,6332.00
2022-10-20T14:17:49.708Z,4840.00
2022-10-20T14:18:49.677Z,5552.00
2022-10-20T14:20:53.746Z,2384.00
2022-10-20T14:21:53.787Z,4632.00
2022-10-20T14:23:57.929Z,3916.00
2022-10-20T14:24:57.894Z,3528.00